Disclaimer

Please do not use the information listed here in-flight or in-navigation, as they are not provided to us by the airports but are provided by volunteers, so they might be outdated.

Search


Regions


Airport information page

Radio informations:
GRENOBLE TWR - 119.3 MHz
GRENOBLE GND - 121.925 MHz
GRENOBLE ATIS - 125.725 MHz
GRENOBLE APP - 119.3 MHz

Airport informations:
Latitude: 45° 21' 46.60" N
Longitude: 005° 19' 45.75" E
Elevation: 1302 feet - 397 meters
Operating hours: Remarks
Operating agency: Civil government, landing fees and diplomatic clearance may be required
Timezone: UTC+1(+2DT) - Last Sunday in March to last Sunday in October
Fuel: Jet A1, without icing nhibitor.

100/130 MIL Spec, low lead, aviation gasoline (BLUE)

Runway information:
09/27 - 10007 x 148 feet< - >3050 x 45 meters

Recent METARs:
LFLS 160600Z AUTO 05004KT 8000 NSC 07/05 Q1023 TEMPO 0600 FG VV///
LFLS 160630Z AUTO 05007KT 8000 NSC 07/05 Q1023 TEMPO 0600 FG VV///
LFLS 160700Z AUTO 05008KT 7000 NSC 07/05 Q1023 TEMPO 0600 FG VV///

Airport on the map: